JA2123 RJOY-RJOO
Flight info
| Callsign | JA2123 |
|---|---|
| Flight time | 0h 7m |
| Altitude | 3000 |
| Route | IZUMI HABIK IKOMA/N0112F020 |
| Aircraft | C172/L-SFG/C |
Departure
| Time | 2026-04-16 00:00 |
|---|---|
| Airport | Yao Airport (RJOY) |
Arrival
| Time | 2026-04-16 00:07 |
|---|---|
| Airport | Osaka Itami International Airport (RJOO) |
| Time | Latitude | Longitude | Altitude | Speed | Heading |
|---|---|---|---|---|---|
| 2026-04-15 23:26 | 34.59712 | 135.59542 | 40 ft | 0 kts | 85° |
| 2026-04-15 23:53 | 34.59712 | 135.59543 | 40 ft | 0 kts | 87° |
| 2026-04-15 23:53 | 34.59691 | 135.59548 | 40 ft | 4 kts | 238° |
| 2026-04-15 23:53 | 34.59683 | 135.59519 | 40 ft | 3 kts | 255° |
| 2026-04-15 23:53 | 34.59681 | 135.59484 | 40 ft | 7 kts | 264° |
| 2026-04-15 23:54 | 34.59674 | 135.59413 | 40 ft | 9 kts | 266° |
| 2026-04-15 23:54 | 34.59670 | 135.59341 | 40 ft | 9 kts | 266° |
| 2026-04-15 23:54 | 34.59670 | 135.59263 | 40 ft | 10 kts | 258° |
| 2026-04-15 23:54 | 34.59666 | 135.59177 | 40 ft | 11 kts | 282° |
| 2026-04-15 23:55 | 34.59663 | 135.59096 | 40 ft | 10 kts | 266° |
| 2026-04-15 23:55 | 34.59647 | 135.59011 | 39 ft | 11 kts | 243° |
| 2026-04-15 23:55 | 34.59605 | 135.58939 | 37 ft | 11 kts | 195° |
| 2026-04-15 23:55 | 34.59576 | 135.59031 | 35 ft | 27 kts | 87° |
| 2026-04-15 23:56 | 34.59593 | 135.59465 | 53 ft | 71 kts | 84° |
| 2026-04-15 23:56 | 34.59619 | 135.60042 | 294 ft | 60 kts | 82° |
| 2026-04-15 23:56 | 34.59680 | 135.60622 | 281 ft | 84 kts | 83° |
| 2026-04-15 23:56 | 34.59729 | 135.61443 | 274 ft | 107 kts | 90° |
| 2026-04-15 23:57 | 34.59570 | 135.62365 | 412 ft | 117 kts | 107° |
| 2026-04-15 23:57 | 34.59493 | 135.63268 | 573 ft | 101 kts | 55° |
| 2026-04-15 23:57 | 34.60053 | 135.63412 | 525 ft | 100 kts | 348° |
| 2026-04-15 23:57 | 34.60766 | 135.63372 | 404 ft | 106 kts | 4° |
| 2026-04-15 23:58 | 34.61519 | 135.63550 | 386 ft | 115 kts | 19° |
| 2026-04-15 23:58 | 34.62273 | 135.63926 | 382 ft | 116 kts | 13° |
| 2026-04-15 23:58 | 34.63054 | 135.63833 | 369 ft | 117 kts | 343° |
| 2026-04-15 23:58 | 34.63818 | 135.63483 | 377 ft | 117 kts | 345° |
| 2026-04-15 23:59 | 34.64304 | 135.63243 | 373 ft | 110 kts | 341° |
| 2026-04-15 23:59 | 34.64977 | 135.62913 | 322 ft | 101 kts | 342° |
| 2026-04-15 23:59 | 34.65694 | 135.62334 | 375 ft | 73 kts | 316° |
| 2026-04-15 23:59 | 34.65920 | 135.61806 | 511 ft | 81 kts | 302° |
| 2026-04-16 00:00 | 34.66089 | 135.61058 | 608 ft | 104 kts | 285° |
| 2026-04-16 00:00 | 34.66018 | 135.60368 | 1026 ft | 71 kts | 292° |
| 2026-04-16 00:00 | 34.65999 | 135.59940 | 1138 ft | 73 kts | 291° |
| 2026-04-16 00:00 | 34.66126 | 135.59385 | 1257 ft | 77 kts | 311° |
| 2026-04-16 00:01 | 34.66383 | 135.58856 | 1495 ft | 69 kts | 319° |
| 2026-04-16 00:01 | 34.66503 | 135.58326 | 1725 ft | 66 kts | 322° |
| 2026-04-16 00:01 | 34.66709 | 135.57854 | 1854 ft | 60 kts | 329° |
| 2026-04-16 00:01 | 34.66982 | 135.57229 | 2186 ft | 58 kts | 331° |
| 2026-04-16 00:02 | 34.67117 | 135.56950 | 2358 ft | 60 kts | 319° |
| 2026-04-16 00:02 | 34.67270 | 135.56489 | 2532 ft | 54 kts | 338° |
| 2026-04-16 00:02 | 34.67589 | 135.56030 | 2782 ft | 51 kts | 352° |
| 2026-04-16 00:02 | 34.67782 | 135.55846 | 2784 ft | 74 kts | 330° |
| 2026-04-16 00:03 | 34.68186 | 135.55488 | 2859 ft | 81 kts | 344° |
| 2026-04-16 00:03 | 34.68705 | 135.55090 | 2853 ft | 94 kts | 343° |
| 2026-04-16 00:03 | 34.69289 | 135.54673 | 2837 ft | 100 kts | 343° |
| 2026-04-16 00:03 | 34.69899 | 135.54251 | 2840 ft | 102 kts | 343° |
| 2026-04-16 00:04 | 34.70419 | 135.53601 | 2824 ft | 111 kts | 324° |
| 2026-04-16 00:04 | 34.70881 | 135.52855 | 2830 ft | 110 kts | 323° |
| 2026-04-16 00:04 | 34.71334 | 135.52113 | 2833 ft | 109 kts | 323° |
| 2026-04-16 00:04 | 34.71779 | 135.51389 | 2825 ft | 109 kts | 323° |
| 2026-04-16 00:05 | 34.72301 | 135.50663 | 2496 ft | 123 kts | 322° |
| 2026-04-16 00:05 | 34.72856 | 135.49957 | 2480 ft | 111 kts | 329° |
| 2026-04-16 00:05 | 34.73522 | 135.49347 | 1949 ft | 132 kts | 327° |
| 2026-04-16 00:05 | 34.74209 | 135.48624 | 1473 ft | 139 kts | 317° |
| 2026-04-16 00:06 | 34.74853 | 135.47852 | 982 ft | 144 kts | 320° |
| 2026-04-16 00:06 | 34.75563 | 135.47122 | 802 ft | 126 kts | 319° |
| 2026-04-16 00:06 | 34.76223 | 135.46347 | 431 ft | 133 kts | 320° |
| 2026-04-16 00:06 | 34.76780 | 135.45672 | 299 ft | 91 kts | 324° |
| 2026-04-16 00:07 | 34.77207 | 135.45156 | 91 ft | 74 kts | 330° |
| 2026-04-16 00:07 | 34.77563 | 135.44749 | 54 ft | 63 kts | 318° |
| 2026-04-16 00:07 | 34.77831 | 135.44426 | 42 ft | 47 kts | 324° |
| 2026-04-16 00:07 | 34.78049 | 135.44190 | 43 ft | 40 kts | 326° |
| 2026-04-16 00:08 | 34.78282 | 135.44013 | 43 ft | 41 kts | 342° |
| 2026-04-16 00:08 | 34.78543 | 135.44100 | 39 ft | 42 kts | 43° |
| 2026-04-16 00:08 | 34.78567 | 135.44405 | 45 ft | 40 kts | 137° |
| 2026-04-16 00:08 | 34.78445 | 135.44478 | 40 ft | 0 kts | 11° |